LIRE

Pratica Di Mare Airport

Pomezia, Italy
TAF LIRE 182000Z 1821/1906 VRB03KT CAVOK
Issued Valid From Valid To
Jul-18 @ 20:00 UTC
(3 hours ago)
Jul-18 @ 21:00 UTC
(2 hours ago)
Jul-19 @ 06:00 UTC
(in 7 hours)
Jul-18 @ 21:00 to Jul-19 @ 06:00
TAF LIRE 182000Z 1821/1906 VRB03KT CAVOK
Wind Visibility Clouds Conditions
Variable at 3 knots 10,000+ meters
  • No significant clouds
TAF LIRE 182000Z 1821/1906 VRB03KT CAVOK
Issued Jul-18 @ 20:00 UTC
(3 hours ago)
Valid From Jul-18 @ 21:00 UTC
(2 hours ago)
Valid To Jul-19 @ 06:00 UTC
(in 7 hours)
Jul-18 @ 21:00 - Jul-19 @ 06:00
Wind Visibility
Variable at 3 knots 10,000+ meters
Clouds
  • No significant clouds
Conditions